createdAt,value
2023-02-22T00:00:46.911Z,22.20
2023-02-22T00:03:16.644Z,19.23
2023-02-22T00:05:46.158Z,24.73
2023-02-22T00:08:17.830Z,22.52
2023-02-22T00:10:45.076Z,24.60
2023-02-22T00:13:14.818Z,22.25
2023-02-22T00:15:41.689Z,22.87
2023-02-22T00:18:09.549Z,17.48
2023-02-22T00:20:37.001Z,21.05
2023-02-22T00:23:04.020Z,17.52
2023-02-22T00:25:30.994Z,18.35
2023-02-22T00:27:57.924Z,16.73
2023-02-22T00:30:27.376Z,17.58
2023-02-22T00:32:56.818Z,17.10
2023-02-22T00:35:26.288Z,19.08
2023-02-22T00:37:55.960Z,19.50
2023-02-22T00:40:25.554Z,21.80
2023-02-22T00:42:52.969Z,19.20
2023-02-22T00:45:24.573Z,20.13
2023-02-22T00:47:52.150Z,21.13
2023-02-22T00:50:19.608Z,24.33
2023-02-22T00:52:47.428Z,20.63
2023-02-22T00:55:22.011Z,19.58
2023-02-22T00:57:48.998Z,20.42
2023-02-22T01:00:42.616Z,19.15
2023-02-22T01:03:11.593Z,16.67
2023-02-22T01:05:39.110Z,17.50
2023-02-22T01:08:08.425Z,17.90
2023-02-22T01:10:36.548Z,19.33
2023-02-22T01:13:04.884Z,16.33
2023-02-22T01:15:31.908Z,17.60
2023-02-22T01:17:59.845Z,17.27
2023-02-22T01:20:28.060Z,18.10
2023-02-22T01:22:56.955Z,20.83
2023-02-22T01:25:26.973Z,15.85
2023-02-22T01:27:54.435Z,17.90
2023-02-22T01:30:24.452Z,17.87
2023-02-22T01:32:52.038Z,17.25
2023-02-22T01:35:23.208Z,16.15
2023-02-22T01:37:50.512Z,19.15
2023-02-22T01:40:39.669Z,17.38
2023-02-22T01:43:26.347Z,11.70
2023-02-22T01:46:07.765Z,15.07
2023-02-22T01:49:03.248Z,12.93
2023-02-22T01:51:34.283Z,12.82
2023-02-22T01:54:06.913Z,11.65
2023-02-22T01:56:38.370Z,17.70
2023-02-22T01:59:10.746Z,14.88
2023-02-22T02:01:39.838Z,15.43
2023-02-22T02:04:12.975Z,15.00
2023-02-22T02:06:40.239Z,15.18
2023-02-22T02:09:45.053Z,17.20
2023-02-22T02:12:14.789Z,12.27
2023-02-22T02:14:43.250Z,13.88
2023-02-22T02:17:13.726Z,12.23
2023-02-22T02:20:08.264Z,13.80
2023-02-22T02:22:49.312Z,15.30
2023-02-22T02:25:49.717Z,15.77
2023-02-22T02:28:33.022Z,15.32
2023-02-22T02:31:27.858Z,15.68
2023-02-22T02:34:04.512Z,18.80
2023-02-22T02:36:52.156Z,14.07
2023-02-22T02:39:46.234Z,13.98
2023-02-22T02:42:18.601Z,13.48
2023-02-22T02:45:12.218Z,15.25
2023-02-22T02:47:45.740Z,16.30
2023-02-22T02:50:15.349Z,18.07
2023-02-22T02:52:44.696Z,21.15
2023-02-22T02:55:12.450Z,18.30
2023-02-22T02:57:39.437Z,18.90
2023-02-22T03:00:08.198Z,18.88
2023-02-22T03:02:37.689Z,18.23
2023-02-22T03:05:40.005Z,17.77
2023-02-22T03:08:17.738Z,16.85
2023-02-22T03:11:05.429Z,19.58
2023-02-22T03:14:01.369Z,17.85
2023-02-22T03:16:50.226Z,17.63
2023-02-22T03:19:38.650Z,19.20
2023-02-22T03:22:31.404Z,17.60
2023-02-22T03:25:14.361Z,19.50
2023-02-22T03:27:47.554Z,22.45
2023-02-22T03:30:22.605Z,20.37
2023-02-22T03:32:57.490Z,20.35
2023-02-22T03:35:28.483Z,21.92
2023-02-22T03:37:59.165Z,21.00
2023-02-22T03:40:33.777Z,21.98
2023-02-22T03:43:36.966Z,19.23
2023-02-22T03:46:05.792Z,16.05
2023-02-22T03:48:38.441Z,17.75
2023-02-22T03:51:06.126Z,21.42
2023-02-22T03:53:34.893Z,19.77
2023-02-22T03:56:05.020Z,22.67
2023-02-22T03:58:34.234Z,15.90
2023-02-22T04:01:01.113Z,21.02
2023-02-22T04:03:28.153Z,17.08
2023-02-22T04:05:55.032Z,22.27
2023-02-22T04:08:21.861Z,17.90
2023-02-22T04:10:48.825Z,16.23
2023-02-22T04:13:15.676Z,16.52
2023-02-22T04:15:42.749Z,17.90
2023-02-22T04:18:13.156Z,15.93
2023-02-22T04:20:40.012Z,18.80
2023-02-22T04:23:06.947Z,17.73
2023-02-22T04:25:33.980Z,14.65
2023-02-22T04:28:00.846Z,21.35
2023-02-22T04:30:27.737Z,18.65
2023-02-22T04:32:54.642Z,22.63
2023-02-22T04:35:21.483Z,21.45
2023-02-22T04:37:48.290Z,28.80
2023-02-22T04:40:16.845Z,22.42
2023-02-22T04:42:43.742Z,22.75
2023-02-22T04:45:11.300Z,19.03
2023-02-22T04:47:38.280Z,22.25
2023-02-22T04:50:08.597Z,21.27
2023-02-22T04:52:35.733Z,23.77
2023-02-22T04:55:02.879Z,26.85
2023-02-22T04:57:30.166Z,21.10
2023-02-22T04:59:57.260Z,21.35
2023-02-22T05:02:24.368Z,22.15
2023-02-22T05:04:51.320Z,19.35
2023-02-22T05:07:18.242Z,23.50
2023-02-22T05:09:47.947Z,21.30
2023-02-22T05:12:15.505Z,22.42
2023-02-22T05:14:42.351Z,20.67
2023-02-22T05:17:09.404Z,22.30
2023-02-22T05:19:36.374Z,32.28
2023-02-22T05:22:03.249Z,32.70
2023-02-22T05:24:30.273Z,32.65
2023-02-22T05:26:57.122Z,24.98
2023-02-22T05:29:24.046Z,24.60
2023-02-22T05:31:51.038Z,21.83
2023-02-22T05:34:18.014Z,23.93
2023-02-22T05:36:45.049Z,19.42
2023-02-22T05:39:12.205Z,19.08
2023-02-22T05:41:39.062Z,21.38
2023-02-22T05:44:06.017Z,20.70
2023-02-22T05:46:33.384Z,20.77
2023-02-22T05:49:00.267Z,23.08
2023-02-22T05:51:27.254Z,24.80
2023-02-22T05:53:54.312Z,24.73
2023-02-22T05:56:38.104Z,22.90
2023-02-22T05:59:05.074Z,20.20
2023-02-22T06:01:32.006Z,21.13
2023-02-22T06:03:58.809Z,24.13
2023-02-22T06:06:25.678Z,24.63
2023-02-22T06:08:52.514Z,29.85
2023-02-22T06:11:19.649Z,28.07
2023-02-22T06:13:51.480Z,31.05
2023-02-22T06:16:18.821Z,30.33
2023-02-22T06:18:45.728Z,31.58
2023-02-22T06:21:12.679Z,30.55
2023-02-22T06:23:39.568Z,29.70
2023-02-22T06:26:06.639Z,32.78
2023-02-22T06:28:33.638Z,31.50
2023-02-22T06:31:00.439Z,33.38
2023-02-22T06:33:27.323Z,27.52
2023-02-22T06:35:54.414Z,31.57
2023-02-22T06:38:23.424Z,35.28
2023-02-22T06:40:50.581Z,37.38
2023-02-22T06:43:17.756Z,38.90
2023-02-22T06:45:44.664Z,39.55
2023-02-22T06:48:11.521Z,35.57
2023-02-22T06:50:38.458Z,36.67
2023-02-22T06:53:05.492Z,35.53
2023-02-22T06:55:34.508Z,34.88
2023-02-22T06:58:02.496Z,31.55
2023-02-22T07:00:30.812Z,36.57
2023-02-22T07:02:58.337Z,36.83
2023-02-22T07:05:27.486Z,34.05
2023-02-22T07:07:56.319Z,37.97
2023-02-22T07:10:27.107Z,39.60
2023-02-22T07:12:54.369Z,35.90
2023-02-22T07:15:22.911Z,36.95
2023-02-22T07:17:50.569Z,32.80
2023-02-22T07:20:18.781Z,33.60
2023-02-22T07:22:45.669Z,33.10
2023-02-22T07:25:12.755Z,33.63
2023-02-22T07:27:41.369Z,32.75
2023-02-22T07:30:20.068Z,37.08
2023-02-22T07:32:47.973Z,31.98
2023-02-22T07:35:32.465Z,33.15
2023-02-22T07:37:59.767Z,32.50
2023-02-22T07:40:27.309Z,33.00
2023-02-22T07:42:59.405Z,34.08
2023-02-22T07:45:31.760Z,28.52
2023-02-22T07:47:59.552Z,20.60
2023-02-22T07:50:28.497Z,25.03
2023-02-22T07:52:56.480Z,22.70
2023-02-22T07:55:26.316Z,21.17
2023-02-22T07:57:55.655Z,21.70
2023-02-22T08:00:31.511Z,21.63
2023-02-22T08:03:01.284Z,20.23
2023-02-22T08:05:29.992Z,15.50
2023-02-22T08:07:57.363Z,17.52
2023-02-22T08:10:26.663Z,18.15
2023-02-22T08:12:54.328Z,17.83
2023-02-22T08:15:41.891Z,16.77
2023-02-22T08:18:13.535Z,17.40
2023-02-22T08:20:42.642Z,19.95
2023-02-22T08:23:11.392Z,18.15
2023-02-22T08:25:38.604Z,18.63
2023-02-22T08:28:09.334Z,16.87
2023-02-22T08:30:39.979Z,16.52
2023-02-22T08:33:07.261Z,17.85
2023-02-22T08:35:34.595Z,17.55
2023-02-22T08:38:04.458Z,18.27
2023-02-22T08:40:35.268Z,18.00
2023-02-22T08:43:02.796Z,16.52
2023-02-22T08:45:29.795Z,17.25
2023-02-22T08:47:56.815Z,18.15
2023-02-22T08:50:31.825Z,17.35
2023-02-22T08:53:00.410Z,17.00
2023-02-22T08:55:29.701Z,18.30
2023-02-22T08:57:56.487Z,18.83
2023-02-22T09:00:24.363Z,17.75
2023-02-22T09:02:52.399Z,17.88
2023-02-22T09:05:20.636Z,17.33
2023-02-22T09:07:47.943Z,17.13
2023-02-22T09:10:21.278Z,21.02
2023-02-22T09:12:48.143Z,20.05
2023-02-22T09:15:15.457Z,20.13
2023-02-22T09:17:42.459Z,19.17
2023-02-22T09:20:10.654Z,20.17
2023-02-22T09:22:37.585Z,19.23
2023-02-22T09:25:16.335Z,17.13
2023-02-22T09:27:44.297Z,17.13
2023-02-22T09:30:29.465Z,17.80
2023-02-22T09:33:00.182Z,19.70
2023-02-22T09:35:27.767Z,18.33
2023-02-22T09:37:56.657Z,15.80
2023-02-22T09:40:24.924Z,15.40
2023-02-22T09:43:15.879Z,14.47
2023-02-22T09:45:51.978Z,19.08
2023-02-22T09:48:22.279Z,16.30
2023-02-22T09:50:51.294Z,15.20
2023-02-22T09:53:39.684Z,14.80
2023-02-22T09:56:13.337Z,17.43
2023-02-22T09:58:44.940Z,15.00
2023-02-22T10:01:40.145Z,15.38
2023-02-22T10:04:39.251Z,18.17
2023-02-22T10:07:15.915Z,13.73
2023-02-22T10:09:45.537Z,14.00
2023-02-22T10:12:36.023Z,18.42
2023-02-22T10:15:39.843Z,17.80
2023-02-22T10:19:03.863Z,16.73
2023-02-22T10:22:00.233Z,17.33
2023-02-22T10:24:45.945Z,16.43
2023-02-22T10:27:37.813Z,18.08
2023-02-22T10:30:25.876Z,15.02
2023-02-22T10:33:15.883Z,19.60
2023-02-22T10:35:47.243Z,17.42
2023-02-22T10:38:19.819Z,20.23
2023-02-22T10:40:55.610Z,15.75
2023-02-22T10:43:22.965Z,17.23
2023-02-22T10:45:57.397Z,16.25
2023-02-22T10:48:26.610Z,15.43
2023-02-22T10:51:00.275Z,16.13
2023-02-22T10:53:27.591Z,22.25
2023-02-22T10:56:19.677Z,20.20
2023-02-22T10:58:57.996Z,19.05
2023-02-22T11:01:32.959Z,17.27
2023-02-22T11:04:12.550Z,17.83
2023-02-22T11:06:42.607Z,19.70
2023-02-22T11:09:22.749Z,16.30
2023-02-22T11:12:07.171Z,13.75
2023-02-22T11:14:34.019Z,15.30
2023-02-22T11:17:06.700Z,13.60
2023-02-22T11:19:34.203Z,16.20
2023-02-22T11:22:21.854Z,15.30
2023-02-22T11:27:33.801Z,17.13
2023-02-22T11:30:25.471Z,15.57
2023-02-22T11:33:00.100Z,18.13
2023-02-22T11:35:32.444Z,16.45
2023-02-22T11:38:19.395Z,13.77
2023-02-22T11:40:46.303Z,15.05
2023-02-22T11:43:18.834Z,9.83
2023-02-22T11:46:07.041Z,9.85
2023-02-22T11:48:37.404Z,10.75
2023-02-22T11:51:08.754Z,9.98
2023-02-22T11:54:18.068Z,9.60
2023-02-22T11:56:50.584Z,8.63
2023-02-22T11:59:17.305Z,13.18
2023-02-22T12:01:56.840Z,12.52
2023-02-22T12:04:51.808Z,10.85
2023-02-22T12:08:13.791Z,13.15
2023-02-22T12:11:04.988Z,11.90
2023-02-22T12:13:59.731Z,11.45
2023-02-22T12:16:37.854Z,12.50
2023-02-22T12:19:40.195Z,10.45
2023-02-22T12:22:12.760Z,10.32
2023-02-22T12:24:48.880Z,9.50
2023-02-22T12:27:25.599Z,11.23
2023-02-22T12:30:01.461Z,9.30
2023-02-22T12:32:46.503Z,9.57
2023-02-22T12:35:26.690Z,9.70
2023-02-22T12:38:06.483Z,10.90
2023-02-22T12:41:01.748Z,9.38
2023-02-22T12:44:01.352Z,8.95
2023-02-22T12:46:31.965Z,8.23
2023-02-22T12:49:10.206Z,7.72
2023-02-22T12:51:46.262Z,8.97
2023-02-22T12:54:44.822Z,8.07
2023-02-22T12:57:23.936Z,10.35
2023-02-22T12:59:56.256Z,9.68
2023-02-22T13:02:31.387Z,9.50
2023-02-22T13:04:58.620Z,11.30
2023-02-22T13:08:02.091Z,8.02
2023-02-22T13:10:31.929Z,8.25
2023-02-22T13:13:09.062Z,6.75
2023-02-22T13:15:53.943Z,5.68
2023-02-22T13:18:26.739Z,4.77
2023-02-22T13:21:19.853Z,5.43
2023-02-22T13:24:05.327Z,5.45
2023-02-22T13:26:42.445Z,6.38
2023-02-22T13:29:18.880Z,7.57
2023-02-22T13:31:45.732Z,6.43
2023-02-22T13:34:31.151Z,5.97
2023-02-22T13:37:35.866Z,6.78
2023-02-22T13:40:26.296Z,6.05
2023-02-22T13:43:23.125Z,5.30
2023-02-22T13:46:16.656Z,6.07
2023-02-22T13:49:24.682Z,5.57
2023-02-22T13:52:07.287Z,6.47
2023-02-22T13:54:43.454Z,5.80
2023-02-22T13:57:37.308Z,6.53
2023-02-22T14:00:16.175Z,4.93
2023-02-22T14:03:14.094Z,4.82
2023-02-22T14:05:40.851Z,4.82
2023-02-22T14:08:28.005Z,6.25
2023-02-22T14:10:56.564Z,5.63
2023-02-22T14:13:24.794Z,5.90
2023-02-22T14:16:00.986Z,4.82
2023-02-22T14:18:43.969Z,6.10
2023-02-22T14:21:13.676Z,6.85
2023-02-22T14:23:56.058Z,7.75
2023-02-22T14:26:37.427Z,6.47
2023-02-22T14:29:10.038Z,5.70
2023-02-22T14:31:42.622Z,4.95
2023-02-22T14:34:17.691Z,8.00
2023-02-22T14:36:54.674Z,5.40
2023-02-22T14:39:36.838Z,7.30
2023-02-22T14:42:29.025Z,5.72
2023-02-22T14:45:08.138Z,8.00
2023-02-22T14:47:56.459Z,6.40
2023-02-22T14:50:42.407Z,6.72
2023-02-22T14:53:24.227Z,6.33
2023-02-22T14:55:57.875Z,6.80
2023-02-22T14:58:34.469Z,7.53
2023-02-22T15:01:17.366Z,6.22
2023-02-22T15:03:45.503Z,7.25
2023-02-22T15:06:19.020Z,6.33
2023-02-22T15:08:47.170Z,8.20
2023-02-22T15:11:29.067Z,5.80
2023-02-22T15:13:55.873Z,6.25
2023-02-22T15:16:25.291Z,7.38
2023-02-22T15:18:58.107Z,5.60
2023-02-22T15:21:28.321Z,7.13
2023-02-22T15:23:58.838Z,5.93
2023-02-22T15:26:31.368Z,7.60
2023-02-22T15:29:00.004Z,6.57
2023-02-22T15:31:32.250Z,7.03
2023-02-22T15:34:17.381Z,6.15
2023-02-22T15:36:48.226Z,6.53
2023-02-22T15:39:30.921Z,7.00
2023-02-22T15:42:10.642Z,10.13
2023-02-22T15:44:43.421Z,9.53
2023-02-22T15:47:25.529Z,8.55
2023-02-22T15:50:14.315Z,9.57
2023-02-22T15:52:49.263Z,10.93
2023-02-22T15:55:17.933Z,8.25
2023-02-22T15:57:44.746Z,9.60
2023-02-22T16:00:32.367Z,7.72
2023-02-22T16:02:59.755Z,8.43
2023-02-22T16:05:40.696Z,7.30
2023-02-22T16:08:22.505Z,9.02
2023-02-22T16:10:58.241Z,9.63
2023-02-22T16:13:32.675Z,8.48
2023-02-22T16:16:18.209Z,8.90
2023-02-22T16:18:45.124Z,8.52
2023-02-22T16:21:14.767Z,10.32
2023-02-22T16:24:06.940Z,9.83
2023-02-22T16:26:40.850Z,11.38
2023-02-22T16:29:09.406Z,9.70
2023-02-22T16:31:39.707Z,10.95
2023-02-22T16:34:08.095Z,11.15
2023-02-22T16:36:44.192Z,9.30
2023-02-22T16:39:20.142Z,11.98
2023-02-22T16:41:49.761Z,9.80
2023-02-22T16:44:19.676Z,11.75
2023-02-22T16:46:46.466Z,10.32
2023-02-22T16:49:14.023Z,11.93
2023-02-22T16:52:03.087Z,10.98
2023-02-22T16:54:34.454Z,10.70
2023-02-22T16:57:02.272Z,9.32
2023-02-22T16:59:32.999Z,11.57
2023-02-22T17:01:59.840Z,9.53
2023-02-22T17:04:26.696Z,10.07
2023-02-22T17:06:53.682Z,9.95
2023-02-22T17:09:20.959Z,10.73
2023-02-22T17:11:52.023Z,8.73
2023-02-22T17:14:21.893Z,9.53
2023-02-22T17:16:49.679Z,9.20
2023-02-22T17:19:19.925Z,9.93
2023-02-22T17:21:47.571Z,9.80
2023-02-22T17:24:17.792Z,8.47
2023-02-22T17:26:44.760Z,10.63
2023-02-22T17:29:11.736Z,10.23
2023-02-22T17:31:38.772Z,9.38
2023-02-22T17:34:06.579Z,9.82
2023-02-22T17:36:34.964Z,10.47
2023-02-22T17:39:02.382Z,9.82
2023-02-22T17:41:29.465Z,9.40
2023-02-22T17:43:56.458Z,10.82
2023-02-22T17:46:23.390Z,10.45
2023-02-22T17:48:50.343Z,9.63
2023-02-22T17:51:17.172Z,9.35
2023-02-22T17:53:43.941Z,10.15
2023-02-22T17:56:14.503Z,9.75
2023-02-22T17:58:41.941Z,8.88
2023-02-22T18:01:23.356Z,9.37
2023-02-22T18:03:51.692Z,7.22
2023-02-22T18:06:23.920Z,12.90
2023-02-22T18:08:56.421Z,9.50
2023-02-22T18:11:25.712Z,10.13
2023-02-22T18:13:57.228Z,10.00
2023-02-22T18:16:25.953Z,9.93
2023-02-22T18:18:54.049Z,8.20
2023-02-22T18:21:22.004Z,8.55
2023-02-22T18:23:49.268Z,9.60
2023-02-22T18:26:18.896Z,9.73
2023-02-22T18:28:46.679Z,8.57
2023-02-22T18:31:16.824Z,9.27
2023-02-22T18:33:51.049Z,10.32
2023-02-22T18:36:23.434Z,9.68
2023-02-22T18:38:53.395Z,9.90
2023-02-22T18:41:24.582Z,7.88
2023-02-22T18:43:52.018Z,10.13
2023-02-22T18:46:22.544Z,8.43
2023-02-22T18:48:55.298Z,9.73
2023-02-22T18:51:27.321Z,10.13
2023-02-22T18:53:57.063Z,11.18
2023-02-22T18:56:24.048Z,9.13
2023-02-22T18:58:56.321Z,8.75
2023-02-22T19:01:24.231Z,11.98
2023-02-22T19:03:52.805Z,10.57
2023-02-22T19:06:20.551Z,10.70
2023-02-22T19:08:47.709Z,9.18
2023-02-22T19:11:17.558Z,9.55
2023-02-22T19:13:45.985Z,9.20
2023-02-22T19:16:14.110Z,9.33
2023-02-22T19:18:41.331Z,9.70
2023-02-22T19:21:08.376Z,9.02
2023-02-22T19:23:39.828Z,13.32
2023-02-22T19:26:07.592Z,11.60
2023-02-22T19:28:35.638Z,10.83
2023-02-22T19:31:20.069Z,9.73
2023-02-22T19:33:51.653Z,61.60
2023-02-22T19:36:23.247Z,12.85
2023-02-22T19:38:50.921Z,12.27
2023-02-22T19:41:25.450Z,9.43
2023-02-22T19:43:55.445Z,8.25
2023-02-22T19:46:34.533Z,10.95
2023-02-22T19:49:02.922Z,9.77
2023-02-22T19:51:31.827Z,11.18
2023-02-22T19:54:01.634Z,12.13
2023-02-22T19:56:30.372Z,12.98
2023-02-22T19:59:11.242Z,13.35
2023-02-22T20:01:38.600Z,13.00
2023-02-22T20:04:09.267Z,14.38
2023-02-22T20:06:39.253Z,15.93
2023-02-22T20:09:11.486Z,13.48
2023-02-22T20:11:39.110Z,12.20
2023-02-22T20:14:06.625Z,11.05
2023-02-22T20:16:35.409Z,12.70
2023-02-22T20:19:02.657Z,10.77
2023-02-22T20:21:32.055Z,19.45
2023-02-22T20:24:06.614Z,12.52
2023-02-22T20:26:36.365Z,13.75
2023-02-22T20:29:06.242Z,13.82
2023-02-22T20:31:33.870Z,13.33
2023-02-22T20:34:01.784Z,11.82
2023-02-22T20:36:30.343Z,11.15
2023-02-22T20:38:59.587Z,10.45
2023-02-22T20:41:32.218Z,8.70
2023-02-22T20:44:00.465Z,8.00
2023-02-22T20:46:29.739Z,8.38
2023-02-22T20:49:01.839Z,7.50
2023-02-22T20:51:29.501Z,9.50
2023-02-22T20:54:00.425Z,8.05
2023-02-22T20:56:30.032Z,8.90
2023-02-22T20:58:58.387Z,14.00
2023-02-22T21:01:25.261Z,11.95
2023-02-22T21:03:52.261Z,11.18
2023-02-22T21:06:21.512Z,9.45
2023-02-22T21:08:56.822Z,9.97
2023-02-22T21:11:26.023Z,9.70
2023-02-22T21:13:53.405Z,11.35
2023-02-22T21:16:26.278Z,12.18
2023-02-22T21:18:55.206Z,18.45
2023-02-22T21:21:22.634Z,20.37
2023-02-22T21:23:52.091Z,19.38
2023-02-22T21:26:24.229Z,19.27
2023-02-22T21:28:54.940Z,11.80
2023-02-22T21:31:24.590Z,11.82
2023-02-22T21:33:53.638Z,11.00
2023-02-22T21:36:22.048Z,13.32
2023-02-22T21:38:49.076Z,13.20
2023-02-22T21:41:17.514Z,11.30
2023-02-22T21:43:49.364Z,10.15
2023-02-22T21:46:16.479Z,8.13
2023-02-22T21:48:44.642Z,8.90
2023-02-22T21:51:14.552Z,10.23
2023-02-22T21:53:45.452Z,8.55
2023-02-22T21:56:17.431Z,12.50
2023-02-22T21:58:44.693Z,9.70
2023-02-22T22:01:12.081Z,10.23
2023-02-22T22:03:39.045Z,9.38
2023-02-22T22:06:07.711Z,8.82
2023-02-22T22:08:34.475Z,10.57
2023-02-22T22:11:01.337Z,9.10
2023-02-22T22:13:28.196Z,9.55
2023-02-22T22:15:55.109Z,10.18
2023-02-22T22:18:22.015Z,9.32
2023-02-22T22:20:48.857Z,8.68
2023-02-22T22:23:15.712Z,10.33
2023-02-22T22:25:42.679Z,10.70
2023-02-22T22:28:16.209Z,8.40
2023-02-22T22:30:46.527Z,10.05
2023-02-22T22:33:16.870Z,11.43
2023-02-22T22:35:44.254Z,10.27
2023-02-22T22:38:13.831Z,11.07
2023-02-22T22:40:43.151Z,10.02
2023-02-22T22:43:09.997Z,11.50
2023-02-22T22:45:37.671Z,10.10
2023-02-22T22:48:04.425Z,9.43
2023-02-22T22:50:31.810Z,8.80
2023-02-22T22:53:05.423Z,16.55
2023-02-22T22:55:40.552Z,16.27
2023-02-22T22:58:09.174Z,13.02
2023-02-22T23:00:38.378Z,12.70
2023-02-22T23:03:15.964Z,11.38
2023-02-22T23:05:49.077Z,10.55
2023-02-22T23:08:16.110Z,11.00
2023-02-22T23:10:42.984Z,9.63
2023-02-22T23:13:11.839Z,11.17
2023-02-22T23:15:46.517Z,11.43
2023-02-22T23:18:14.289Z,8.13
2023-02-22T23:20:44.079Z,9.07
2023-02-22T23:23:11.008Z,9.77
2023-02-22T23:25:37.873Z,18.27
2023-02-22T23:28:04.725Z,22.80
2023-02-22T23:30:31.586Z,16.75
2023-02-22T23:32:58.450Z,16.58
2023-02-22T23:35:25.344Z,17.17
2023-02-22T23:37:52.883Z,14.40
2023-02-22T23:40:19.948Z,16.92
2023-02-22T23:42:54.596Z,15.93
2023-02-22T23:45:29.761Z,29.55
2023-02-22T23:47:58.168Z,40.00
2023-02-22T23:50:28.394Z,30.63
2023-02-22T23:53:00.834Z,34.20
2023-02-22T23:55:29.976Z,35.58
2023-02-22T23:57:56.895Z,27.73
